createdAt,value
2022-11-29T00:02:29.269Z,12.43
2022-11-29T00:05:15.491Z,12.45
2022-11-29T00:08:01.660Z,11.52
2022-11-29T00:10:47.939Z,12.25
2022-11-29T00:13:34.190Z,12.85
2022-11-29T00:16:20.507Z,12.85
2022-11-29T00:19:06.622Z,12.52
2022-11-29T00:21:52.752Z,12.60
2022-11-29T00:24:39.018Z,12.60
2022-11-29T00:27:25.139Z,13.50
2022-11-29T00:30:11.468Z,13.70
2022-11-29T00:32:58.075Z,14.02
2022-11-29T00:35:44.129Z,12.32
2022-11-29T00:38:30.349Z,13.30
2022-11-29T00:41:16.284Z,12.77
2022-11-29T00:44:02.561Z,12.63
2022-11-29T00:46:49.326Z,14.32
2022-11-29T00:49:35.379Z,12.80
2022-11-29T00:52:21.465Z,13.77
2022-11-29T00:55:07.909Z,12.80
2022-11-29T00:57:54.017Z,12.65
2022-11-29T01:00:40.185Z,13.10
2022-11-29T01:03:26.508Z,13.25
2022-11-29T01:06:13.980Z,13.07
2022-11-29T01:09:00.010Z,13.43
2022-11-29T01:11:46.342Z,13.48
2022-11-29T01:14:32.333Z,12.95
2022-11-29T01:17:18.606Z,13.38
2022-11-29T01:20:05.692Z,12.93
2022-11-29T01:22:51.728Z,12.38
2022-11-29T01:25:37.785Z,13.27
2022-11-29T01:28:23.877Z,13.55
2022-11-29T01:31:11.333Z,13.38
2022-11-29T01:33:59.843Z,13.43
2022-11-29T01:36:46.022Z,13.02
2022-11-29T01:42:33.464Z,12.60
2022-11-29T01:45:24.459Z,12.10
2022-11-29T01:48:12.076Z,12.88
2022-11-29T01:51:00.908Z,12.73
2022-11-29T01:53:47.490Z,12.70
2022-11-29T01:56:34.523Z,12.50
2022-11-29T01:59:23.390Z,13.18
2022-11-29T02:02:21.488Z,12.80
2022-11-29T02:05:08.798Z,12.68
2022-11-29T02:07:59.189Z,12.85
2022-11-29T02:10:51.983Z,12.10
2022-11-29T02:13:41.357Z,12.10
2022-11-29T02:16:28.069Z,12.00
2022-11-29T02:19:35.262Z,12.00
2022-11-29T02:22:24.684Z,12.43
2022-11-29T02:25:26.894Z,13.08
2022-11-29T02:28:42.613Z,12.93
2022-11-29T02:31:32.097Z,12.45
2022-11-29T02:34:32.394Z,11.77
2022-11-29T02:37:18.455Z,11.77
2022-11-29T02:40:10.645Z,12.45
2022-11-29T02:42:59.799Z,12.32
2022-11-29T02:46:01.259Z,12.00
2022-11-29T02:48:53.567Z,11.68
2022-11-29T02:51:54.978Z,11.52
2022-11-29T02:54:41.561Z,11.02
2022-11-29T02:57:39.414Z,11.27
2022-11-29T03:00:26.363Z,11.20
2022-11-29T03:03:33.284Z,11.00
2022-11-29T03:06:32.273Z,10.80
2022-11-29T03:09:21.209Z,10.93
2022-11-29T03:12:17.717Z,11.13
2022-11-29T03:15:04.668Z,10.77
2022-11-29T03:18:09.785Z,10.75
2022-11-29T03:20:59.100Z,10.35
2022-11-29T03:23:49.517Z,10.85
2022-11-29T03:26:53.268Z,10.93
2022-11-29T03:29:59.726Z,10.52
2022-11-29T03:32:46.113Z,9.55
2022-11-29T03:35:41.244Z,9.90
2022-11-29T03:38:39.872Z,10.00
2022-11-29T03:41:31.846Z,10.15
2022-11-29T03:44:25.008Z,10.10
2022-11-29T03:47:14.197Z,10.55
2022-11-29T03:50:03.076Z,10.32
2022-11-29T03:52:57.926Z,10.65
2022-11-29T03:55:47.357Z,9.98
2022-11-29T03:58:33.887Z,9.88
2022-11-29T04:01:30.839Z,10.25
2022-11-29T04:04:36.024Z,10.52
2022-11-29T04:07:31.968Z,10.18
2022-11-29T04:10:41.870Z,9.80
2022-11-29T04:13:31.653Z,9.82
2022-11-29T04:16:36.642Z,10.52
2022-11-29T04:19:29.265Z,10.05
2022-11-29T04:22:34.430Z,9.35
2022-11-29T04:25:40.906Z,9.32
2022-11-29T04:28:30.050Z,9.63
2022-11-29T04:31:36.436Z,10.45
2022-11-29T04:34:42.102Z,9.90
2022-11-29T04:37:41.356Z,11.18
2022-11-29T04:40:36.952Z,9.75
2022-11-29T04:43:52.024Z,10.68
2022-11-29T04:46:41.695Z,10.27
2022-11-29T04:49:37.221Z,10.63
2022-11-29T04:52:37.307Z,9.40
2022-11-29T04:55:45.928Z,10.07
2022-11-29T04:58:42.444Z,9.90
2022-11-29T05:01:37.024Z,10.10
2022-11-29T05:04:30.857Z,10.10
2022-11-29T05:07:37.522Z,10.15
2022-11-29T05:10:24.500Z,10.25
2022-11-29T05:13:20.535Z,9.60
2022-11-29T05:16:06.880Z,9.15
2022-11-29T05:18:59.151Z,9.70
2022-11-29T05:22:00.551Z,10.05
2022-11-29T05:24:47.397Z,8.98
2022-11-29T05:27:52.600Z,9.13
2022-11-29T05:30:45.128Z,8.98
2022-11-29T05:33:34.366Z,8.85
2022-11-29T05:36:29.008Z,8.63
2022-11-29T05:39:34.066Z,7.43
2022-11-29T05:42:20.315Z,7.53
2022-11-29T05:45:15.455Z,7.97
2022-11-29T05:48:13.388Z,7.40
2022-11-29T05:51:09.818Z,6.60
2022-11-29T05:54:12.544Z,7.70
2022-11-29T05:56:59.040Z,7.32
2022-11-29T05:59:45.507Z,7.28
2022-11-29T06:02:55.413Z,7.35
2022-11-29T06:05:57.486Z,7.10
2022-11-29T06:08:54.515Z,7.35
2022-11-29T06:11:49.602Z,8.18
2022-11-29T06:14:51.404Z,8.23
2022-11-29T06:17:49.525Z,8.48
2022-11-29T06:20:38.912Z,8.70
2022-11-29T06:23:36.571Z,9.38
2022-11-29T06:27:02.520Z,9.07
2022-11-29T06:29:54.933Z,9.23
2022-11-29T06:32:44.197Z,9.18
2022-11-29T06:35:33.068Z,9.00
2022-11-29T06:38:22.792Z,8.73
2022-11-29T06:41:11.126Z,8.73
2022-11-29T06:43:57.596Z,8.75
2022-11-29T06:47:03.450Z,9.45
2022-11-29T06:49:57.231Z,9.27
2022-11-29T06:53:21.995Z,9.50
2022-11-29T06:56:28.667Z,10.20
2022-11-29T06:59:30.239Z,9.98
2022-11-29T07:02:43.410Z,9.85
2022-11-29T07:05:35.656Z,9.65
2022-11-29T07:08:23.701Z,9.15
2022-11-29T07:11:12.422Z,9.25
2022-11-29T07:13:58.743Z,10.48
2022-11-29T07:16:57.027Z,10.15
2022-11-29T07:20:02.227Z,9.80
2022-11-29T07:23:00.619Z,9.68
2022-11-29T07:25:56.354Z,10.50
2022-11-29T07:28:46.628Z,9.82
2022-11-29T07:31:45.337Z,10.98
2022-11-29T07:34:37.111Z,10.35
2022-11-29T07:37:26.583Z,10.43
2022-11-29T07:40:15.783Z,10.02
2022-11-29T07:43:09.192Z,10.05
2022-11-29T07:48:41.770Z,10.18
2022-11-29T07:51:32.174Z,9.35
2022-11-29T07:54:19.573Z,8.88
2022-11-29T07:57:06.044Z,10.05
2022-11-29T08:00:07.321Z,9.25
2022-11-29T08:02:57.431Z,9.27
2022-11-29T08:05:46.520Z,8.60
2022-11-29T08:08:32.966Z,9.40
2022-11-29T08:11:19.210Z,9.82
2022-11-29T08:14:05.602Z,10.02
2022-11-29T08:16:52.101Z,10.32
2022-11-29T08:19:38.608Z,9.13
2022-11-29T08:22:24.665Z,9.15
2022-11-29T08:25:11.042Z,9.55
2022-11-29T08:27:57.880Z,8.75
2022-11-29T08:30:43.957Z,8.70
2022-11-29T08:33:30.357Z,9.05
2022-11-29T08:36:19.147Z,8.95
2022-11-29T08:39:09.160Z,8.50
2022-11-29T08:41:55.672Z,9.23
2022-11-29T08:44:41.919Z,8.75
2022-11-29T08:47:36.823Z,8.05
2022-11-29T08:50:23.595Z,8.68
2022-11-29T08:53:28.444Z,9.10
2022-11-29T08:57:04.578Z,8.05
2022-11-29T08:59:23.283Z,9.30
2022-11-29T09:02:09.775Z,8.05
2022-11-29T09:04:56.063Z,9.15
2022-11-29T09:07:42.548Z,7.55
2022-11-29T09:10:28.890Z,8.23
2022-11-29T09:13:15.460Z,7.95
2022-11-29T09:16:06.546Z,7.85
2022-11-29T09:18:56.072Z,9.07
2022-11-29T09:21:42.562Z,8.38
2022-11-29T09:24:29.113Z,7.88
2022-11-29T09:27:15.551Z,7.90
2022-11-29T09:30:04.619Z,8.38
2022-11-29T09:32:51.026Z,7.95
2022-11-29T09:35:37.804Z,7.75
2022-11-29T09:38:27.307Z,7.20
2022-11-29T09:41:19.567Z,7.65
2022-11-29T09:44:13.389Z,7.82
2022-11-29T09:47:18.965Z,7.97
2022-11-29T09:50:22.210Z,8.20
2022-11-29T09:53:27.341Z,8.27
2022-11-29T09:56:24.906Z,8.18
2022-11-29T09:59:18.571Z,8.95
2022-11-29T10:04:59.794Z,7.78
2022-11-29T10:08:06.214Z,8.00
2022-11-29T10:10:55.353Z,8.05
2022-11-29T10:13:45.823Z,8.25
2022-11-29T10:16:44.633Z,8.55
2022-11-29T10:19:34.030Z,8.82
2022-11-29T10:22:31.897Z,8.50
2022-11-29T10:25:21.261Z,8.52
2022-11-29T10:28:10.788Z,7.97
2022-11-29T10:30:58.378Z,7.00
2022-11-29T10:33:45.994Z,6.95
2022-11-29T10:36:44.056Z,6.55
2022-11-29T10:39:39.760Z,6.50
2022-11-29T10:42:46.281Z,7.07
2022-11-29T10:45:34.404Z,7.13
2022-11-29T10:48:21.685Z,7.03
2022-11-29T10:51:16.391Z,6.72
2022-11-29T10:54:32.706Z,7.38
2022-11-29T10:57:20.977Z,7.40
2022-11-29T11:00:09.875Z,6.40
2022-11-29T11:02:56.353Z,6.07
2022-11-29T11:05:42.719Z,6.60
2022-11-29T11:08:29.892Z,6.35
2022-11-29T11:11:25.279Z,7.38
2022-11-29T11:14:21.433Z,6.32
2022-11-29T11:17:17.336Z,5.93
2022-11-29T11:20:11.048Z,5.63
2022-11-29T11:23:01.526Z,5.90
2022-11-29T11:25:51.414Z,4.97
2022-11-29T11:28:41.236Z,4.90
2022-11-29T11:31:34.300Z,5.40
2022-11-29T11:34:23.551Z,5.30
2022-11-29T11:37:16.641Z,4.95
2022-11-29T11:42:49.825Z,5.22
2022-11-29T11:45:37.703Z,5.00
2022-11-29T11:48:24.263Z,5.07
2022-11-29T11:51:20.710Z,5.13
2022-11-29T11:54:07.009Z,5.85
2022-11-29T11:56:55.334Z,5.50
2022-11-29T11:59:41.594Z,6.82
2022-11-29T12:02:29.515Z,6.22
2022-11-29T12:05:17.833Z,6.78
2022-11-29T12:08:08.739Z,7.10
2022-11-29T12:10:57.027Z,7.40
2022-11-29T12:13:45.943Z,7.30
2022-11-29T12:16:35.175Z,7.68
2022-11-29T12:19:24.032Z,7.50
2022-11-29T12:22:15.020Z,7.18
2022-11-29T12:25:03.367Z,6.72
2022-11-29T12:27:50.801Z,7.22
2022-11-29T12:30:38.164Z,7.18
2022-11-29T12:33:27.772Z,6.93
2022-11-29T12:36:18.577Z,6.63
2022-11-29T12:39:04.973Z,6.75
2022-11-29T12:42:10.693Z,6.40
2022-11-29T12:45:13.163Z,6.03
2022-11-29T12:48:02.448Z,6.30
2022-11-29T12:51:01.850Z,5.95
2022-11-29T12:53:48.218Z,6.13
2022-11-29T12:56:39.676Z,6.75
2022-11-29T12:59:29.148Z,6.95
2022-11-29T13:02:15.631Z,7.13
2022-11-29T13:05:01.988Z,6.55
2022-11-29T13:07:48.227Z,6.93
2022-11-29T13:10:37.553Z,6.85
2022-11-29T13:13:36.555Z,5.68
2022-11-29T13:16:27.658Z,5.65
2022-11-29T13:19:34.366Z,5.60
2022-11-29T13:22:35.976Z,5.25
2022-11-29T13:25:29.350Z,5.47
2022-11-29T13:28:25.179Z,6.03
2022-11-29T13:31:14.385Z,5.55
2022-11-29T13:34:00.351Z,6.05
2022-11-29T13:36:57.957Z,6.05
2022-11-29T13:40:10.527Z,6.95
2022-11-29T13:43:15.294Z,7.03
2022-11-29T13:46:16.651Z,6.75
2022-11-29T13:49:02.936Z,7.15
2022-11-29T13:51:49.760Z,7.40
2022-11-29T13:54:36.150Z,6.45
2022-11-29T13:57:23.513Z,6.95
2022-11-29T14:00:25.196Z,6.97
2022-11-29T14:03:20.728Z,6.55
2022-11-29T14:06:13.245Z,5.93
2022-11-29T14:09:19.803Z,6.50
2022-11-29T14:12:22.205Z,6.95
2022-11-29T14:15:28.672Z,6.55
2022-11-29T14:18:50.572Z,6.47
2022-11-29T14:21:55.523Z,7.38
2022-11-29T14:24:43.691Z,7.00
2022-11-29T14:27:29.963Z,6.90
2022-11-29T14:31:02.095Z,6.52
2022-11-29T14:33:48.425Z,6.47
2022-11-29T14:36:40.238Z,6.68
2022-11-29T14:40:02.154Z,6.60
2022-11-29T14:42:49.707Z,6.72
2022-11-29T14:45:36.309Z,6.07
2022-11-29T14:48:31.010Z,6.15
2022-11-29T14:51:18.850Z,6.63
2022-11-29T14:54:05.078Z,7.95
2022-11-29T14:56:51.448Z,7.55
2022-11-29T14:59:41.548Z,7.38
2022-11-29T15:02:35.147Z,7.93
2022-11-29T15:05:24.710Z,9.30
2022-11-29T15:08:29.888Z,9.70
2022-11-29T15:11:22.339Z,8.82
2022-11-29T15:14:15.573Z,9.20
2022-11-29T15:17:05.306Z,8.73
2022-11-29T15:20:09.865Z,9.05
2022-11-29T15:22:59.073Z,8.75
2022-11-29T15:25:48.551Z,8.82
2022-11-29T15:28:34.956Z,8.88
2022-11-29T15:31:22.133Z,8.85
2022-11-29T15:34:18.541Z,8.50
2022-11-29T15:37:05.360Z,8.80
2022-11-29T15:40:21.289Z,8.40
2022-11-29T15:43:07.441Z,8.40
2022-11-29T15:45:55.706Z,8.52
2022-11-29T15:48:42.074Z,8.23
2022-11-29T15:51:34.770Z,7.70
2022-11-29T15:54:28.934Z,8.18
2022-11-29T15:57:41.713Z,7.82
2022-11-29T16:00:30.591Z,7.88
2022-11-29T16:03:22.805Z,7.45
2022-11-29T16:06:17.326Z,6.60
2022-11-29T16:09:04.653Z,6.97
2022-11-29T16:11:50.844Z,6.43
2022-11-29T16:14:37.759Z,7.80
2022-11-29T16:17:31.760Z,7.80
2022-11-29T16:20:18.818Z,8.10
2022-11-29T16:23:12.567Z,8.07
2022-11-29T16:26:02.390Z,7.82
2022-11-29T16:28:50.454Z,7.65
2022-11-29T16:31:38.301Z,8.00
2022-11-29T16:34:24.656Z,7.47
2022-11-29T16:37:31.669Z,8.18
2022-11-29T16:40:21.215Z,7.50
2022-11-29T16:43:20.317Z,7.95
2022-11-29T16:46:30.398Z,7.40
2022-11-29T16:49:33.887Z,8.43
2022-11-29T16:52:28.124Z,8.07
2022-11-29T16:55:16.172Z,8.50
2022-11-29T16:58:04.788Z,8.18
2022-11-29T17:00:50.930Z,8.60
2022-11-29T17:03:37.517Z,8.38
2022-11-29T17:06:24.836Z,9.02
2022-11-29T17:09:17.317Z,8.90
2022-11-29T17:12:03.818Z,6.63
2022-11-29T17:14:50.286Z,8.70
2022-11-29T17:17:36.645Z,9.80
2022-11-29T17:20:23.532Z,9.13
2022-11-29T17:23:10.416Z,9.70
2022-11-29T17:25:57.483Z,9.90
2022-11-29T17:28:45.240Z,10.75
2022-11-29T17:31:31.835Z,10.63
2022-11-29T17:34:25.230Z,10.20
2022-11-29T17:37:11.533Z,9.93
2022-11-29T17:39:57.929Z,10.82
2022-11-29T17:42:44.592Z,10.95
2022-11-29T17:45:31.114Z,11.05
2022-11-29T17:48:17.131Z,9.82
2022-11-29T17:51:07.018Z,9.45
2022-11-29T17:54:01.126Z,10.50
2022-11-29T17:56:47.286Z,10.00
2022-11-29T17:59:33.518Z,10.40
2022-11-29T18:02:20.531Z,9.85
2022-11-29T18:05:07.252Z,9.63
2022-11-29T18:07:59.541Z,10.23
2022-11-29T18:10:45.963Z,10.95
2022-11-29T18:13:41.926Z,10.40
2022-11-29T18:16:29.895Z,9.88
2022-11-29T18:19:17.643Z,10.55
2022-11-29T18:22:04.351Z,10.57
2022-11-29T18:24:50.594Z,10.05
2022-11-29T18:27:36.754Z,9.88
2022-11-29T18:30:23.737Z,10.80
2022-11-29T18:33:10.307Z,10.77
2022-11-29T18:36:03.047Z,10.07
2022-11-29T18:38:49.881Z,10.57
2022-11-29T18:41:37.354Z,10.55
2022-11-29T18:44:29.331Z,9.30
2022-11-29T18:47:15.862Z,10.20
2022-11-29T18:50:02.138Z,10.23
2022-11-29T18:52:48.389Z,9.80
2022-11-29T18:55:34.913Z,9.82
2022-11-29T18:58:21.454Z,9.35
2022-11-29T19:01:08.999Z,9.77
2022-11-29T19:03:56.330Z,10.05
2022-11-29T19:06:43.040Z,10.02
2022-11-29T19:09:53.950Z,9.05
2022-11-29T19:12:41.084Z,9.75
2022-11-29T19:15:28.313Z,9.60
2022-11-29T19:18:14.612Z,9.70
2022-11-29T19:21:11.522Z,9.57
2022-11-29T19:24:03.023Z,9.65
2022-11-29T19:26:49.753Z,9.93
2022-11-29T19:29:39.659Z,10.45
2022-11-29T19:32:25.902Z,11.45
2022-11-29T19:35:11.996Z,10.75
2022-11-29T19:37:58.248Z,10.68
2022-11-29T19:40:44.392Z,10.07
2022-11-29T19:43:32.349Z,10.60
2022-11-29T19:46:20.496Z,9.43
2022-11-29T19:49:08.232Z,10.05
2022-11-29T19:51:54.357Z,10.00
2022-11-29T19:54:40.430Z,10.35
2022-11-29T19:57:26.746Z,10.52
2022-11-29T20:00:13.499Z,10.57
2022-11-29T20:03:00.500Z,9.50
2022-11-29T20:05:54.237Z,9.95
2022-11-29T20:08:41.016Z,8.85
2022-11-29T20:11:27.551Z,9.80
2022-11-29T20:14:14.678Z,10.30
2022-11-29T20:17:01.484Z,9.68
2022-11-29T20:19:47.762Z,9.57
2022-11-29T20:22:35.461Z,9.63
2022-11-29T20:25:40.130Z,10.40
2022-11-29T20:28:27.037Z,10.05
2022-11-29T20:31:15.287Z,9.68
2022-11-29T20:34:01.863Z,9.65
2022-11-29T20:37:00.846Z,9.25
2022-11-29T20:39:47.452Z,9.57
2022-11-29T20:42:53.599Z,9.98
2022-11-29T20:45:55.573Z,9.98
2022-11-29T20:48:41.956Z,9.52
2022-11-29T20:51:32.658Z,9.73
2022-11-29T20:54:20.315Z,10.30
2022-11-29T20:57:06.314Z,10.32
2022-11-29T20:59:52.633Z,10.52
2022-11-29T21:02:39.672Z,10.20
2022-11-29T21:05:26.221Z,10.07
2022-11-29T21:08:12.658Z,10.70
2022-11-29T21:11:03.390Z,10.50
2022-11-29T21:13:50.303Z,9.40
2022-11-29T21:16:36.541Z,9.50
2022-11-29T21:19:25.109Z,9.77
2022-11-29T21:22:15.487Z,9.65
2022-11-29T21:25:16.365Z,10.68
2022-11-29T21:28:03.613Z,11.75
2022-11-29T21:30:49.866Z,11.23
2022-11-29T21:33:36.393Z,11.52
2022-11-29T21:36:22.605Z,11.73
2022-11-29T21:39:11.093Z,11.95
2022-11-29T21:41:57.545Z,11.55
2022-11-29T21:44:43.806Z,11.48
2022-11-29T21:47:30.826Z,11.30
2022-11-29T21:50:17.158Z,10.98
2022-11-29T21:53:03.947Z,10.98
2022-11-29T21:55:55.817Z,10.48
2022-11-29T21:58:43.290Z,10.55
2022-11-29T22:01:29.830Z,10.82
2022-11-29T22:04:15.901Z,11.48
2022-11-29T22:07:02.307Z,10.50
2022-11-29T22:09:48.655Z,10.35
2022-11-29T22:12:35.325Z,10.32
2022-11-29T22:15:24.772Z,9.50
2022-11-29T22:18:11.773Z,9.95
2022-11-29T22:21:01.939Z,9.65
2022-11-29T22:23:48.487Z,9.98
2022-11-29T22:26:35.145Z,9.93
2022-11-29T22:29:22.099Z,9.90
2022-11-29T22:32:08.298Z,9.80
2022-11-29T22:34:54.420Z,9.93
2022-11-29T22:37:40.674Z,9.43
2022-11-29T22:40:27.102Z,9.82
2022-11-29T22:43:13.356Z,9.93
2022-11-29T22:46:10.308Z,9.27
2022-11-29T22:48:58.167Z,10.50
2022-11-29T22:51:44.746Z,10.00
2022-11-29T22:54:30.817Z,9.45
2022-11-29T22:57:17.129Z,9.32
2022-11-29T23:00:03.569Z,9.40
2022-11-29T23:02:50.162Z,9.65
2022-11-29T23:05:36.402Z,9.27
2022-11-29T23:08:22.733Z,9.75
2022-11-29T23:11:11.482Z,9.52
2022-11-29T23:13:57.863Z,9.73
2022-11-29T23:16:44.681Z,9.43
2022-11-29T23:19:31.264Z,9.52
2022-11-29T23:22:17.478Z,9.43
2022-11-29T23:25:03.606Z,9.93
2022-11-29T23:27:50.821Z,9.68
2022-11-29T23:30:36.930Z,9.70
2022-11-29T23:33:23.790Z,9.85
2022-11-29T23:36:10.557Z,9.85
2022-11-29T23:38:56.958Z,9.48
2022-11-29T23:41:43.245Z,9.13
2022-11-29T23:44:29.406Z,9.65
2022-11-29T23:47:15.603Z,9.45
2022-11-29T23:50:01.728Z,9.27
2022-11-29T23:52:52.274Z,8.80
2022-11-29T23:55:38.521Z,9.50
2022-11-29T23:58:25.104Z,9.38
